Time;durP1;ratioP1;P1;durP2;ratioP2;P2;SDS_P1;SDS_P2;PMS_P1;PMS_P2;Temp;Humidity;BMP_temperature;BMP_pressure;BME280_temperature;BME280_humidity;BME280_pressure;Samples;Min_cycle;Max_cycle;Signal;HPM_P1;HPM_P2
2023/04/01 00:01:00;;;;;;;;;;;;;;;13.39;62.78;98331.41;4967768;28;6788;-86
2023/04/01 00:03:27;;;;;;;;;;;;;;;13.39;63.21;98346.84;4954949;28;8557;-86
2023/04/01 00:05:55;;;;;;;;;;;;;;;13.39;62.13;98336.56;4971682;28;7191;-87
2023/04/01 00:08:21;;;;;;;;;;;;;;;13.37;62.72;98337.41;4944483;28;7207;-86
2023/04/01 00:10:47;;;;;;;;;;;;;;;13.38;62.59;98337.44;4972473;28;7350;-86
2023/04/01 00:13:13;;;;;;;;;;;;;;;13.40;62.22;98338.28;4944286;28;8482;-86
2023/04/01 00:15:39;;;;;;;;;;;;;;;13.40;62.98;98338.28;4969509;28;6792;-86
2023/04/01 00:18:05;;;;;;;;;;;;;;;13.39;62.57;98333.16;4967973;28;7198;-86
2023/04/01 00:20:30;;;;;;;;;;;;;;;13.39;62.87;98340.88;4945943;28;7077;-86
2023/04/01 00:22:56;;;;;;;;;;;;;;;13.37;62.64;98333.13;4962248;28;7245;-86
2023/04/01 00:25:23;;;;;;;;;;;;;;;13.37;63.04;98328.00;4927795;28;8701;-86
2023/04/01 00:27:49;;;;;;;;;;;;;;;13.38;62.52;98334.00;4942662;28;6788;-86
2023/04/01 00:30:17;;;;;;;;;;;;;;;13.38;63.01;98329.72;4952773;28;8632;-86
2023/04/01 00:32:43;;;;;;;;;;;;;;;13.36;62.68;98326.28;4957713;28;8567;-86
2023/04/01 00:35:10;;;;;;;;;;;;;;;13.38;63.13;98321.16;4925568;28;8648;-86
2023/04/01 00:37:37;;;;;;;;;;;;;;;13.37;62.91;98321.97;4945622;28;8492;-86
2023/04/01 00:40:06;;;;;;;;;;;;;;;13.36;62.65;98326.28;4944938;28;8423;-86
2023/04/01 00:42:32;;;;;;;;;;;;;;;13.38;62.33;98329.72;4949303;28;8406;-86
2023/04/01 00:44:58;;;;;;;;;;;;;;;13.37;62.94;98328.00;4952370;28;8459;-86
2023/04/01 00:47:26;;;;;;;;;;;;;;;13.35;62.63;98332.28;4958831;28;8435;-86
2023/04/01 00:49:55;;;;;;;;;;;;;;;13.35;63.39;98327.13;4965732;28;6964;-87
2023/04/01 00:52:25;;;;;;;;;;;;;;;13.36;63.15;98320.25;4968734;28;6981;-86
2023/04/01 00:55:00;;;;;;;;;;;;;;;13.33;62.52;98324.53;4943520;28;6863;-86
2023/04/01 00:57:36;;;;;;;;;;;;;;;13.36;62.73;98327.97;4969218;28;7203;-86
2023/04/01 01:00:09;;;;;;;;;;;;;;;13.32;63.27;98335.69;4970351;28;6974;-86
2023/04/01 01:02:35;;;;;;;;;;;;;;;13.35;62.92;98324.56;4943314;28;11235;-86
2023/04/01 01:05:01;;;;;;;;;;;;;;;13.37;62.80;98327.13;4967640;28;6852;-86
2023/04/01 01:08:05;;;;;;;;;;;;;;;13.33;62.38;98321.13;4954779;28;8638;-86
2023/04/01 01:10:38;;;;;;;;;;;;;;;13.32;63.20;98332.25;4956192;28;8508;-86
2023/04/01 01:13:15;;;;;;;;;;;;;;;13.31;62.82;98323.69;4967811;28;6979;-86
2023/04/01 01:16:10;;;;;;;;;;;;;;;13.31;63.13;98325.38;4966727;28;7003;-86
2023/04/01 01:19:00;;;;;;;;;;;;;;;13.32;63.14;98329.66;4958193;28;8470;-86
2023/04/01 01:22:16;;;;;;;;;;;;;;;13.28;63.20;98321.13;4940443;28;8390;-86
2023/04/01 01:25:05;;;;;;;;;;;;;;;13.26;63.36;98311.66;4958106;28;8487;-86
2023/04/01 01:27:37;;;;;;;;;;;;;;;13.25;63.01;98318.50;4967416;28;7410;-86
2023/04/01 01:30:54;;;;;;;;;;;;;;;13.28;62.52;98317.66;4942593;28;8418;-86
2023/04/01 01:33:40;;;;;;;;;;;;;;;13.29;62.71;98316.81;4927183;28;11556;-86
2023/04/01 01:36:12;;;;;;;;;;;;;;;13.30;63.04;98313.38;4953925;28;7214;-86
2023/04/01 01:38:39;;;;;;;;;;;;;;;13.27;63.47;98301.34;4926537;28;8517;-86
2023/04/01 01:41:09;;;;;;;;;;;;;;;13.24;63.43;98311.66;4950758;28;6973;-86
2023/04/01 01:43:43;;;;;;;;;;;;;;;13.25;62.42;98307.38;4967455;28;6972;-86
2023/04/01 01:46:16;;;;;;;;;;;;;;;13.23;62.80;98302.22;4968886;28;7279;-87
2023/04/01 01:48:45;;;;;;;;;;;;;;;13.23;63.41;98293.63;4944957;28;8415;-86
2023/04/01 01:51:11;;;;;;;;;;;;;;;13.22;63.48;98309.91;4968727;28;7160;-87
2023/04/01 01:53:37;;;;;;;;;;;;;;;13.22;62.92;98312.50;4955724;28;6947;-87
2023/04/01 01:56:04;;;;;;;;;;;;;;;13.23;62.74;98309.94;4950779;28;6844;-86
2023/04/01 01:58:47;;;;;;;;;;;;;;;13.25;62.65;98303.06;4956722;28;6993;-86
2023/04/01 02:01:20;;;;;;;;;;;;;;;13.28;62.81;98317.66;4968795;28;7201;-86
2023/04/01 02:03:49;;;;;;;;;;;;;;;13.27;63.32;98315.94;4968439;28;6972;-86
2023/04/01 02:06:20;;;;;;;;;;;;;;;13.26;63.13;98315.06;4970481;28;7135;-87
2023/04/01 02:09:02;;;;;;;;;;;;;;;13.25;63.13;98315.09;4952241;28;7208;-86
2023/04/01 02:11:58;;;;;;;;;;;;;;;13.25;62.74;98321.09;4968576;28;7125;-87
2023/04/01 02:14:39;;;;;;;;;;;;;;;13.24;62.61;98321.94;4970217;28;7051;-86
2023/04/01 02:17:15;;;;;;;;;;;;;;;13.22;62.92;98323.66;4940710;28;8967;-86
2023/04/01 02:19:52;;;;;;;;;;;;;;;13.24;62.92;98318.53;4968055;28;8645;-86
2023/04/01 02:22:29;;;;;;;;;;;;;;;13.25;62.38;98327.94;4968537;28;7189;-86
2023/04/01 02:25:07;;;;;;;;;;;;;;;13.25;62.73;98333.09;4960781;28;8488;-86
2023/04/01 02:27:34;;;;;;;;;;;;;;;13.25;62.91;98327.94;4935426;28;8702;-86
2023/04/01 02:29:59;;;;;;;;;;;;;;;13.28;63.36;98333.09;4949118;28;7180;-86
2023/04/01 02:32:29;;;;;;;;;;;;;;;13.29;62.91;98332.25;4966318;28;8424;-86
2023/04/01 02:34:56;;;;;;;;;;;;;;;13.30;62.26;98333.97;4966345;28;7103;-86
2023/04/01 02:37:23;;;;;;;;;;;;;;;13.29;62.41;98339.97;4967218;28;7135;-86
2023/04/01 02:39:48;;;;;;;;;;;;;;;13.30;62.90;98333.97;4950905;28;8663;-86
2023/04/01 02:42:14;;;;;;;;;;;;;;;13.31;62.42;98343.41;4967783;28;6852;-86
2023/04/01 02:44:40;;;;;;;;;;;;;;;13.32;62.60;98343.41;4962735;28;6952;-86
2023/04/01 02:47:08;;;;;;;;;;;;;;;13.31;62.71;98345.97;4954945;28;8507;-87
2023/04/01 02:49:34;;;;;;;;;;;;;;;13.33;62.89;98352.00;4937307;28;8721;-86
2023/04/01 02:52:00;;;;;;;;;;;;;;;13.33;62.58;98346.84;4965772;28;6788;-86
2023/04/01 02:54:26;;;;;;;;;;;;;;;13.29;63.41;98335.69;4956244;28;8430;-86
2023/04/01 02:56:51;;;;;;;;;;;;;;;13.29;62.87;98340.84;4952837;28;8586;-86
2023/04/01 02:59:17;;;;;;;;;;;;;;;13.30;62.68;98346.81;4964222;28;6776;-84
2023/04/01 03:01:45;;;;;;;;;;;;;;;13.31;63.27;98351.13;4971327;28;7543;-84
2023/04/01 03:04:10;;;;;;;;;;;;;;;13.30;62.86;98347.69;4950405;28;8490;-84
2023/04/01 03:06:36;;;;;;;;;;;;;;;13.33;62.83;98354.56;4969358;28;8427;-83
2023/04/01 03:09:03;;;;;;;;;;;;;;;13.34;63.14;98349.41;4970623;28;6940;-84
2023/04/01 03:11:28;;;;;;;;;;;;;;;13.35;63.40;98360.59;4966064;28;8454;-84
2023/04/01 03:13:54;;;;;;;;;;;;;;;13.35;63.30;98352.88;4951261;28;8409;-84
2023/04/01 03:16:20;;;;;;;;;;;;;;;13.40;63.60;98365.75;4965169;28;8430;-83
2023/04/01 03:18:45;;;;;;;;;;;;;;;13.39;62.52;98359.72;4952400;28;6942;-84
2023/04/01 03:21:18;;;;;;;;;;;;;;;13.41;62.33;98359.75;4955918;28;8394;-85
2023/04/01 03:23:44;;;;;;;;;;;;;;;13.41;62.51;98359.75;4935485;28;8433;-84
2023/04/01 03:26:10;;;;;;;;;;;;;;;13.40;62.81;98358.88;4943487;28;7236;-84
2023/04/01 03:28:36;;;;;;;;;;;;;;;13.37;63.50;98369.16;4949105;28;8591;-85
2023/04/01 03:31:01;;;;;;;;;;;;;;;13.39;63.58;98374.31;4932295;28;7150;-84
2023/04/01 03:33:27;;;;;;;;;;;;;;;13.38;63.11;98370.88;4950613;28;6894;-84
2023/04/01 03:35:52;;;;;;;;;;;;;;;13.41;62.89;98377.75;4965017;28;6926;-83
2023/04/01 03:38:18;;;;;;;;;;;;;;;13.43;62.48;98384.63;4966123;28;7148;-85
2023/04/01 03:40:45;;;;;;;;;;;;;;;13.42;63.00;98372.63;4966003;28;7969;-86
2023/04/01 03:43:11;;;;;;;;;;;;;;;13.42;63.14;98372.63;4942834;28;8760;-84
2023/04/01 03:45:45;;;;;;;;;;;;;;;13.42;62.67;98371.75;4925920;28;8429;-84
2023/04/01 03:48:10;;;;;;;;;;;;;;;13.40;63.62;98382.03;4925854;28;8465;-85
2023/04/01 03:50:36;;;;;;;;;;;;;;;13.42;63.15;98382.03;4925441;28;8432;-85
2023/04/01 03:53:01;;;;;;;;;;;;;;;13.40;63.25;98376.88;4971559;28;7253;-85
2023/04/01 03:55:27;;;;;;;;;;;;;;;13.39;63.44;98380.31;4939608;28;8450;-86
2023/04/01 03:57:53;;;;;;;;;;;;;;;13.39;63.09;98377.75;4967532;28;8418;-84
2023/04/01 04:00:18;;;;;;;;;;;;;;;13.39;63.10;98380.31;4941119;28;8388;-85
2023/04/01 04:02:45;;;;;;;;;;;;;;;13.39;63.06;98376.91;4939732;28;8453;-84
2023/04/01 04:05:10;;;;;;;;;;;;;;;13.40;63.62;98387.16;4970554;28;8404;-84
2023/04/01 04:07:36;;;;;;;;;;;;;;;13.38;63.31;98381.16;4968305;28;7389;-85
2023/04/01 04:10:03;;;;;;;;;;;;;;;13.40;62.93;98379.44;4954527;28;7141;-84
2023/04/01 04:12:28;;;;;;;;;;;;;;;13.38;63.71;98388.03;4937943;28;7232;-85
2023/04/01 04:14:54;;;;;;;;;;;;;;;13.37;63.32;98387.16;4965881;28;6932;-85
2023/04/01 04:17:20;;;;;;;;;;;;;;;13.42;63.49;98390.63;4954786;28;8399;-85
2023/04/01 04:19:45;;;;;;;;;;;;;;;13.40;63.59;98400.03;4941713;28;8340;-85
2023/04/01 04:22:11;;;;;;;;;;;;;;;13.44;63.65;98406.06;4952039;28;7154;-85
2023/04/01 04:24:37;;;;;;;;;;;;;;;13.45;63.61;98397.50;4964117;28;8399;-85
2023/04/01 04:27:04;;;;;;;;;;;;;;;13.46;63.19;98404.38;4967623;28;7222;-85
2023/04/01 04:29:29;;;;;;;;;;;;;;;13.47;63.04;98403.53;4955060;28;7134;-88
2023/04/01 04:31:55;;;;;;;;;;;;;;;13.46;62.85;98406.94;4969699;28;8431;-84
2023/04/01 04:34:22;;;;;;;;;;;;;;;13.48;63.59;98407.84;4962589;28;7171;-85
2023/04/01 04:36:48;;;;;;;;;;;;;;;13.49;63.12;98404.41;4958148;28;6954;-85
2023/04/01 04:39:15;;;;;;;;;;;;;;;13.49;62.99;98408.69;4955217;28;7188;-84
2023/04/01 04:41:41;;;;;;;;;;;;;;;13.49;62.93;98403.53;4977162;28;6989;-87
2023/04/01 04:44:07;;;;;;;;;;;;;;;13.49;63.06;98412.13;4976273;28;6948;-85
2023/04/01 04:46:33;;;;;;;;;;;;;;;13.48;63.29;98410.41;4945338;28;8438;-84
2023/04/01 04:48:59;;;;;;;;;;;;;;;13.46;62.83;98425.84;4938982;28;7428;-86
2023/04/01 04:51:25;;;;;;;;;;;;;;;13.47;63.58;98421.53;4961207;28;8594;-84
2023/04/01 04:53:51;;;;;;;;;;;;;;;13.48;63.22;98425.84;4957310;28;8805;-85
2023/04/01 04:56:19;;;;;;;;;;;;;;;13.47;63.13;98427.56;4954484;28;9592;-84
2023/04/01 04:58:45;;;;;;;;;;;;;;;13.46;63.53;98432.69;4955262;28;8468;-84
2023/04/01 05:01:13;;;;;;;;;;;;;;;13.45;62.90;98436.13;4947437;28;6923;-84
2023/04/01 05:03:40;;;;;;;;;;;;;;;13.45;63.49;98431.84;4952576;28;6975;-85
2023/04/01 05:06:07;;;;;;;;;;;;;;;13.46;63.82;98440.41;4960169;28;7165;-84
2023/04/01 05:08:33;;;;;;;;;;;;;;;13.45;63.07;98444.72;4925132;28;8372;-85
2023/04/01 05:11:01;;;;;;;;;;;;;;;13.45;63.40;98436.13;4960350;28;7144;-85
2023/04/01 05:13:27;;;;;;;;;;;;;;;13.45;63.30;98451.56;4960653;28;8912;-84
2023/04/01 05:15:53;;;;;;;;;;;;;;;13.44;63.07;98437.84;4960128;28;7179;-85
2023/04/01 05:18:18;;;;;;;;;;;;;;;13.44;63.22;98447.22;4959137;28;7312;-84
2023/04/01 05:20:53;;;;;;;;;;;;;;;13.43;63.13;98448.09;4947838;28;7127;-86
2023/04/01 05:23:21;;;;;;;;;;;;;;;13.42;63.28;98457.53;4955509;28;8430;-82
2023/04/01 05:25:48;;;;;;;;;;;;;;;13.42;63.17;98460.13;4938427;28;8527;-84
2023/04/01 05:28:14;;;;;;;;;;;;;;;13.44;63.76;98434.38;4945585;28;6802;-83
2023/04/01 05:30:41;;;;;;;;;;;;;;;13.43;62.83;98454.09;4940226;28;7113;-80
2023/04/01 05:33:07;;;;;;;;;;;;;;;13.39;63.13;98447.22;4960984;28;7306;-83
2023/04/01 05:35:33;;;;;;;;;;;;;;;13.40;63.53;98456.66;4959709;28;8412;-83
2023/04/01 05:37:59;;;;;;;;;;;;;;;13.40;63.28;98459.22;4954924;28;7134;-84
2023/04/01 05:40:25;;;;;;;;;;;;;;;13.40;63.45;98466.94;4924439;28;6960;-86
2023/04/01 05:42:50;;;;;;;;;;;;;;;13.39;63.63;98460.06;4950030;28;7552;-85
2023/04/01 05:45:16;;;;;;;;;;;;;;;13.43;63.83;98471.25;4964067;28;6932;-84
2023/04/01 05:47:42;;;;;;;;;;;;;;;13.45;63.92;98475.59;4941984;28;6911;-84
2023/04/01 05:50:10;;;;;;;;;;;;;;;13.47;63.50;98473.00;4968244;28;6809;-84
2023/04/01 05:52:38;;;;;;;;;;;;;;;13.49;63.15;98471.31;4965112;28;6945;-84
2023/04/01 05:55:05;;;;;;;;;;;;;;;13.51;63.26;98476.47;4966554;28;6969;-85
2023/04/01 05:57:31;;;;;;;;;;;;;;;13.53;63.80;98478.19;4969463;28;6999;-84
2023/04/01 05:59:57;;;;;;;;;;;;;;;13.54;63.65;98482.47;4967855;28;6940;-84
2023/04/01 06:02:23;;;;;;;;;;;;;;;13.55;63.61;98478.22;4943058;28;8921;-83
2023/04/01 06:05:02;;;;;;;;;;;;;;;13.57;63.75;98476.50;4952009;28;8459;-84
2023/04/01 06:07:28;;;;;;;;;;;;;;;13.57;63.11;98484.22;4965698;28;7406;-83
2023/04/01 06:09:54;;;;;;;;;;;;;;;13.58;63.31;98478.22;4970824;28;6791;-83
2023/04/01 06:12:35;;;;;;;;;;;;;;;13.59;63.00;98485.09;4961180;28;7003;-82
2023/04/01 06:15:33;;;;;;;;;;;;;;;13.59;63.06;98493.69;4955480;28;8519;-82
2023/04/01 06:18:32;;;;;;;;;;;;;;;13.57;63.85;98489.38;4939982;28;8424;-82
2023/04/01 06:21:14;;;;;;;;;;;;;;;13.56;63.65;98492.78;4970458;28;7219;-83
2023/04/01 06:24:06;;;;;;;;;;;;;;;13.56;64.03;98498.78;4967251;28;7034;-83
2023/04/01 06:26:50;;;;;;;;;;;;;;;13.57;63.67;98507.38;4953410;28;8712;-83
2023/04/01 06:30:02;;;;;;;;;;;;;;;13.56;63.70;98509.09;4940332;28;8404;-83
2023/04/01 06:32:55;;;;;;;;;;;;;;;13.56;63.98;98513.38;4940426;28;9135;-84
2023/04/01 06:36:06;;;;;;;;;;;;;;;13.54;63.64;98507.38;4944263;28;7052;-85
2023/04/01 06:39:05;;;;;;;;;;;;;;;13.56;63.55;98511.66;4969242;28;7200;-83
2023/04/01 06:41:51;;;;;;;;;;;;;;;13.56;63.73;98509.09;4967471;28;8412;-85
2023/04/01 06:44:48;;;;;;;;;;;;;;;13.55;63.47;98512.50;4968074;28;6967;-84
2023/04/01 06:47:32;;;;;;;;;;;;;;;13.56;64.12;98509.09;4938787;28;7076;-83
2023/04/01 06:50:26;;;;;;;;;;;;;;;13.55;63.07;98512.50;4948717;28;8815;-83
2023/04/01 06:53:30;;;;;;;;;;;;;;;13.57;63.43;98509.97;4966513;28;8473;-84
2023/04/01 06:56:12;;;;;;;;;;;;;;;13.58;63.85;98524.53;4970750;28;8366;-83
2023/04/01 06:58:49;;;;;;;;;;;;;;;13.59;63.99;98518.53;4948299;28;8689;-84
2023/04/01 07:01:30;;;;;;;;;;;;;;;13.63;63.34;98527.16;4948265;28;7298;-84
2023/04/01 07:04:05;;;;;;;;;;;;;;;13.65;63.72;98528.88;4970056;28;7264;-87
2023/04/01 07:06:55;;;;;;;;;;;;;;;13.67;63.51;98537.47;4950867;28;8490;-83
2023/04/01 07:09:38;;;;;;;;;;;;;;;13.67;63.40;98536.63;4950959;28;7220;-83
2023/04/01 07:12:27;;;;;;;;;;;;;;;13.67;63.55;98545.19;4970335;28;7010;-85
2023/04/01 07:14:57;;;;;;;;;;;;;;;13.68;63.40;98536.63;4955813;28;8616;-84
2023/04/01 07:17:35;;;;;;;;;;;;;;;13.66;63.36;98547.75;4962154;28;8427;-84
2023/04/01 07:20:27;;;;;;;;;;;;;;;13.64;63.64;98552.03;4955553;28;7337;-84
2023/04/01 07:23:00;;;;;;;;;;;;;;;13.66;63.45;98555.47;4945759;28;8359;-86
2023/04/01 07:25:41;;;;;;;;;;;;;;;13.66;62.99;98561.50;4966934;28;7082;-85
2023/04/01 07:28:14;;;;;;;;;;;;;;;13.68;63.54;98562.34;4955982;28;6833;-84
2023/04/01 07:31:13;;;;;;;;;;;;;;;13.72;63.84;98571.84;4933767;28;7227;-85
2023/04/01 07:34:04;;;;;;;;;;;;;;;13.74;63.28;98566.69;4954373;28;8577;-85
2023/04/01 07:37:06;;;;;;;;;;;;;;;13.78;63.77;98581.31;4965291;28;6955;-84
2023/04/01 07:39:52;;;;;;;;;;;;;;;13.80;63.53;98579.59;4966076;28;7055;-84
2023/04/01 07:43:14;;;;;;;;;;;;;;;13.84;64.09;98591.63;4963197;28;7783;-83
2023/04/01 07:46:15;;;;;;;;;;;;;;;13.84;63.76;98590.78;4954888;28;6904;-84
2023/04/01 07:49:06;;;;;;;;;;;;;;;13.84;63.19;98599.34;4938794;28;8442;-85
2023/04/01 07:51:46;;;;;;;;;;;;;;;13.85;63.02;98595.06;4950882;28;7219;-83
2023/04/01 07:54:57;;;;;;;;;;;;;;;13.86;62.89;98600.25;4926721;28;6846;-84
2023/04/01 07:57:35;;;;;;;;;;;;;;;13.85;63.08;98618.25;4923018;29;7519;-84
2023/04/01 08:00:16;;;;;;;;;;;;;;;13.83;62.97;98620.81;4941967;28;7194;-83
2023/04/01 08:03:19;;;;;;;;;;;;;;;13.81;63.45;98606.19;4958967;28;11231;-85
2023/04/01 08:05:59;;;;;;;;;;;;;;;13.77;62.92;98612.19;4963705;28;8531;-84
2023/04/01 08:08:54;;;;;;;;;;;;;;;13.75;63.66;98623.34;4942213;28;8500;-85
2023/04/01 08:11:40;;;;;;;;;;;;;;;13.73;63.63;98627.63;4970488;28;7210;-84
2023/04/01 08:14:32;;;;;;;;;;;;;;;13.71;63.47;98634.47;4967189;28;8582;-84
2023/04/01 08:17:55;;;;;;;;;;;;;;;13.71;63.78;98637.06;4955572;28;8506;-84
2023/04/01 08:20:57;;;;;;;;;;;;;;;13.79;63.46;98649.09;4956515;28;8636;-85
2023/04/01 08:23:32;;;;;;;;;;;;;;;13.86;64.29;98644.03;4955981;28;8711;-85
2023/04/01 08:26:29;;;;;;;;;;;;;;;13.95;64.00;98635.47;4935496;28;7039;-84
2023/04/01 08:29:07;;;;;;;;;;;;;;;13.98;63.34;98653.50;4972754;28;7224;-84
2023/04/01 08:31:54;;;;;;;;;;;;;;;14.01;63.03;98660.41;4967084;28;6968;-86
2023/04/01 08:34:38;;;;;;;;;;;;;;;14.00;63.23;98659.56;4972333;28;7266;-84
2023/04/01 08:37:20;;;;;;;;;;;;;;;14.00;63.66;98664.72;4967510;28;7180;-84
2023/04/01 08:39:58;;;;;;;;;;;;;;;14.03;64.04;98666.41;4953197;28;6991;-85
2023/04/01 08:42:51;;;;;;;;;;;;;;;14.06;63.90;98665.59;4969078;28;7051;-84
2023/04/01 08:45:48;;;;;;;;;;;;;;;14.06;63.26;98668.16;4951017;28;8691;-85
2023/04/01 08:48:40;;;;;;;;;;;;;;;14.08;63.79;98677.63;4955739;28;8949;-86
2023/04/01 08:51:30;;;;;;;;;;;;;;;14.14;63.47;98681.94;4957019;28;8873;-85
2023/04/01 08:54:16;;;;;;;;;;;;;;;14.21;63.61;98688.88;4971727;28;6962;-84
2023/04/01 08:57:32;;;;;;;;;;;;;;;14.27;62.91;98693.19;4960479;28;8446;-85
2023/04/01 09:00:17;;;;;;;;;;;;;;;14.30;63.33;98694.06;4946228;28;6937;-86
2023/04/01 09:03:29;;;;;;;;;;;;;;;14.30;62.50;98693.22;4968644;28;11506;-84
2023/04/01 09:06:40;;;;;;;;;;;;;;;14.31;62.65;98700.06;4969888;28;6989;-84
2023/04/01 09:09:53;;;;;;;;;;;;;;;14.35;62.91;98696.69;4956096;28;7356;-84
2023/04/01 09:12:54;;;;;;;;;;;;;;;14.39;62.86;98708.72;4970953;28;7236;-86
2023/04/01 09:16:00;;;;;;;;;;;;;;;14.42;62.59;98702.72;4947299;28;8795;-86
2023/04/01 09:18:35;;;;;;;;;;;;;;;14.43;63.03;98709.59;4969825;28;8778;-86
2023/04/01 09:21:41;;;;;;;;;;;;;;;14.46;62.92;98714.75;4953677;28;8461;-85
2023/04/01 09:24:35;;;;;;;;;;;;;;;14.48;62.59;98718.19;4960044;28;7232;-85
2023/04/01 09:27:28;;;;;;;;;;;;;;;14.52;62.84;98719.97;4950644;28;8394;-85
2023/04/01 09:30:14;;;;;;;;;;;;;;;14.53;62.15;98715.66;4970837;28;6825;-85
2023/04/01 09:33:08;;;;;;;;;;;;;;;14.52;61.92;98714.81;4958966;28;13091;-85
2023/04/01 09:35:56;;;;;;;;;;;;;;;14.50;62.64;98720.78;4960353;28;7416;-85
2023/04/01 09:38:57;;;;;;;;;;;;;;;14.51;63.02;98728.56;4955603;28;8419;-86
2023/04/01 09:41:36;;;;;;;;;;;;;;;14.55;62.28;98732.00;4971691;28;7297;-87
2023/04/01 09:44:52;;;;;;;;;;;;;;;14.62;61.78;98731.16;4960401;28;7424;-85
2023/04/01 09:48:02;;;;;;;;;;;;;;;14.67;61.69;98741.50;4941297;28;8425;-85
2023/04/01 09:50:52;;;;;;;;;;;;;;;14.69;62.56;98738.06;4942549;28;6835;-85
2023/04/01 09:53:27;;;;;;;;;;;;;;;14.72;62.40;98744.97;4952436;28;6827;-85
2023/04/01 09:56:38;;;;;;;;;;;;;;;14.77;61.87;98740.72;4956143;28;8413;-84
2023/04/01 09:59:27;;;;;;;;;;;;;;;14.79;62.69;98751.91;4958247;28;8369;-84
2023/04/01 10:02:46;;;;;;;;;;;;;;;14.79;61.48;98754.50;4951953;28;8603;-85
2023/04/01 10:05:54;;;;;;;;;;;;;;;14.79;62.23;98759.66;4968959;28;8837;-85
2023/04/01 10:09:00;;;;;;;;;;;;;;;14.81;61.91;98757.06;4965386;28;8468;-87
2023/04/01 10:11:44;;;;;;;;;;;;;;;14.79;61.90;98762.25;4968481;28;7299;-84
2023/04/01 10:14:47;;;;;;;;;;;;;;;14.80;61.90;98765.66;4968283;28;7182;-85
2023/04/01 10:17:53;;;;;;;;;;;;;;;14.83;61.65;98765.69;4956811;28;8749;-84
2023/04/01 10:21:17;;;;;;;;;;;;;;;14.85;62.39;98775.13;4950298;28;6889;-84
2023/04/01 10:24:01;;;;;;;;;;;;;;;14.85;62.17;98774.28;4957091;28;8721;-85
2023/04/01 10:26:48;;;;;;;;;;;;;;;14.86;61.65;98776.84;4971134;28;7193;-85
2023/04/01 10:29:28;;;;;;;;;;;;;;;14.89;61.70;98780.34;4966886;28;7231;-85
2023/04/01 10:31:57;;;;;;;;;;;;;;;14.91;62.10;98783.78;4965959;28;8332;-85
2023/04/01 10:34:56;;;;;;;;;;;;;;;14.97;62.04;98773.50;4952486;28;8760;-84
2023/04/01 10:38:03;;;;;;;;;;;;;;;14.99;61.78;98782.09;4952005;28;8424;-85
2023/04/01 10:40:50;;;;;;;;;;;;;;;15.03;62.29;98782.97;4948313;28;7274;-84
2023/04/01 10:43:21;;;;;;;;;;;;;;;15.00;61.76;98779.50;4948474;28;8511;-86
2023/04/01 10:46:24;;;;;;;;;;;;;;;15.00;61.77;98788.97;4971147;28;6990;-86
2023/04/01 10:49:30;;;;;;;;;;;;;;;14.99;61.56;98788.09;4972420;28;8726;-85
2023/04/01 10:52:33;;;;;;;;;;;;;;;14.99;62.02;98795.00;4968825;28;6985;-85
2023/04/01 10:55:11;;;;;;;;;;;;;;;15.02;61.78;98796.69;4952885;28;6899;-85
2023/04/01 10:58:35;;;;;;;;;;;;;;;15.06;62.19;98801.88;4966997;28;7423;-86
2023/04/01 11:01:51;;;;;;;;;;;;;;;15.09;62.31;98796.75;4968842;28;7005;-85
2023/04/01 11:04:57;;;;;;;;;;;;;;;15.13;62.38;98800.22;4972083;28;6848;-86
2023/04/01 11:07:53;;;;;;;;;;;;;;;15.20;62.11;98812.25;4966870;28;6853;-85
2023/04/01 11:11:11;;;;;;;;;;;;;;;15.27;61.74;98815.75;4966987;28;7184;-85
2023/04/01 11:13:54;;;;;;;;;;;;;;;15.28;61.53;98817.47;4959335;28;8864;-85
2023/04/01 11:16:57;;;;;;;;;;;;;;;15.30;61.91;98812.28;4964144;28;7069;-86
2023/04/01 11:20:08;;;;;;;;;;;;;;;15.35;62.08;98816.59;4969275;28;7499;-85
2023/04/01 11:22:56;;;;;;;;;;;;;;;15.41;61.79;98826.97;4963499;28;7064;-85
2023/04/01 11:26:09;;;;;;;;;;;;;;;15.51;61.91;98819.25;4953011;28;8424;-84
2023/04/01 11:28:53;;;;;;;;;;;;;;;15.58;62.17;98823.56;4959308;28;7389;-84
2023/04/01 11:31:49;;;;;;;;;;;;;;;15.64;61.72;98828.72;4958169;28;7323;-84
2023/04/01 11:35:00;;;;;;;;;;;;;;;15.69;61.36;98826.16;4961458;28;8429;-84
2023/04/01 11:37:59;;;;;;;;;;;;;;;15.71;61.16;98828.75;4942512;28;8490;-84
2023/04/01 11:41:06;;;;;;;;;;;;;;;15.76;61.54;98829.63;4946258;28;8441;-84
2023/04/01 11:43:42;;;;;;;;;;;;;;;15.85;61.40;98834.81;4959633;28;7181;-84
2023/04/01 11:46:25;;;;;;;;;;;;;;;15.95;60.96;98839.16;4971567;28;7239;-82
2023/04/01 11:49:42;;;;;;;;;;;;;;;15.96;60.78;98830.56;4951432;28;8464;-85
2023/04/01 11:52:26;;;;;;;;;;;;;;;15.98;60.62;98837.44;4933076;28;8715;-84
2023/04/01 11:55:46;;;;;;;;;;;;;;;15.94;60.37;98847.78;4972924;28;7211;-84
2023/04/01 11:58:20;;;;;;;;;;;;;;;15.90;60.28;98850.31;4930775;28;8735;-84
2023/04/01 12:01:22;;;;;;;;;;;;;;;15.87;60.50;98852.88;4939019;28;7180;-84
2023/04/01 12:04:38;;;;;;;;;;;;;;;15.86;60.69;98859.78;4952127;28;8794;-85
2023/04/01 12:07:44;;;;;;;;;;;;;;;15.79;60.38;98861.50;4969536;28;6911;-84
2023/04/01 12:10:39;;;;;;;;;;;;;;;15.75;60.39;98864.91;4951801;28;8287;-84
2023/04/01 12:13:33;;;;;;;;;;;;;;;15.68;60.31;98863.19;4972723;28;7272;-84
2023/04/01 12:16:21;;;;;;;;;;;;;;;15.60;60.41;98880.41;4968189;28;6988;-85
2023/04/01 12:19:10;;;;;;;;;;;;;;;15.52;60.07;98872.59;4967659;28;6777;-85
2023/04/01 12:21:39;;;;;;;;;;;;;;;15.46;60.44;98877.75;4973453;28;6814;-84
2023/04/01 12:24:41;;;;;;;;;;;;;;;15.41;60.41;98886.34;4937756;28;6871;-84
2023/04/01 12:27:46;;;;;;;;;;;;;;;15.38;61.05;98893.19;4964394;28;8469;-84
2023/04/01 12:30:23;;;;;;;;;;;;;;;15.34;61.23;98887.16;4950255;28;8726;-84
2023/04/01 12:33:29;;;;;;;;;;;;;;;15.35;60.98;98886.31;4973366;28;7062;-84
2023/04/01 12:36:35;;;;;;;;;;;;;;;15.35;61.00;98899.22;4973571;28;7390;-85
2023/04/01 12:39:56;;;;;;;;;;;;;;;15.30;61.07;98900.91;4937837;28;8646;-84
2023/04/01 12:43:20;;;;;;;;;;;;;;;15.19;61.00;98887.09;4944592;28;8453;-85
2023/04/01 12:46:20;;;;;;;;;;;;;;;15.05;60.97;98897.34;4970800;28;7097;-85
2023/04/01 12:49:26;;;;;;;;;;;;;;;14.98;61.20;98902.47;4973853;28;7208;-84
2023/04/01 12:52:08;;;;;;;;;;;;;;;14.95;61.81;98904.16;4974544;28;7176;-85
2023/04/01 12:55:03;;;;;;;;;;;;;;;14.95;61.82;98917.94;4944861;28;7210;-84
2023/04/01 12:58:03;;;;;;;;;;;;;;;14.95;62.06;98904.16;4969319;28;6836;-85
2023/04/01 13:01:26;;;;;;;;;;;;;;;14.98;61.54;98906.78;4955552;28;8748;-85
2023/04/01 13:04:09;;;;;;;;;;;;;;;15.03;62.08;98912.81;4967810;28;6824;-85
2023/04/01 13:06:53;;;;;;;;;;;;;;;15.13;62.35;98919.75;4949537;28;8458;-84
2023/04/01 13:09:47;;;;;;;;;;;;;;;15.25;62.12;98928.41;4951559;28;8681;-86
2023/04/01 13:12:37;;;;;;;;;;;;;;;15.29;61.84;98925.00;4970765;28;7378;-85
2023/04/01 13:15:17;;;;;;;;;;;;;;;15.29;61.55;98927.59;4963957;28;6994;-84
2023/04/01 13:18:19;;;;;;;;;;;;;;;15.29;61.68;98925.00;4957502;28;8741;-85
2023/04/01 13:21:21;;;;;;;;;;;;;;;15.26;61.82;98935.34;4942013;28;7251;-84
2023/04/01 13:24:38;;;;;;;;;;;;;;;15.28;61.64;98938.78;4968857;28;7295;-85
2023/04/01 13:27:40;;;;;;;;;;;;;;;15.35;62.34;98942.25;4951802;28;8457;-84
2023/04/01 13:30:24;;;;;;;;;;;;;;;15.38;61.79;98939.66;4952272;28;8752;-84
2023/04/01 13:33:15;;;;;;;;;;;;;;;15.39;61.51;98949.13;4966320;28;11786;-84
2023/04/01 13:36:08;;;;;;;;;;;;;;;15.39;61.78;98946.56;4960068;28;8865;-84
2023/04/01 13:38:45;;;;;;;;;;;;;;;15.36;61.87;98952.59;4969048;28;7229;-85
2023/04/01 13:41:47;;;;;;;;;;;;;;;15.34;62.01;98954.28;4953001;28;8818;-84
2023/04/01 13:44:42;;;;;;;;;;;;;;;15.35;61.26;98957.72;4972050;28;7281;-85
2023/04/01 13:47:53;;;;;;;;;;;;;;;15.43;61.84;98965.50;4975091;28;6979;-85
2023/04/01 13:50:52;;;;;;;;;;;;;;;15.48;61.49;98966.41;4942056;28;8571;-84
2023/04/01 13:53:46;;;;;;;;;;;;;;;15.53;61.95;98969.84;4969810;28;8549;-84
2023/04/01 13:57:03;;;;;;;;;;;;;;;15.57;61.53;98963.00;4967871;28;8465;-83
2023/04/01 13:59:50;;;;;;;;;;;;;;;15.58;61.29;98965.59;4944325;28;8697;-84
2023/04/01 14:02:31;;;;;;;;;;;;;;;15.51;60.81;98977.63;4969694;28;7074;-84
2023/04/01 14:05:25;;;;;;;;;;;;;;;15.41;60.83;98963.78;4950196;28;8727;-84
2023/04/01 14:08:35;;;;;;;;;;;;;;;15.29;60.35;98971.47;4953393;28;8735;-85
2023/04/01 14:11:03;;;;;;;;;;;;;;;15.17;60.67;98981.72;4957575;28;9031;-86
2023/04/01 14:14:08;;;;;;;;;;;;;;;15.10;60.58;98981.66;4968920;28;7295;-85
2023/04/01 14:17:14;;;;;;;;;;;;;;;15.00;60.84;98985.88;4968112;28;7314;-84
2023/04/01 14:20:04;;;;;;;;;;;;;;;14.95;61.23;98987.59;4958265;28;8455;-84